AirNav   Jet Aviation Boston
 
 399 users online  

1AL4 Elsanor Airport
Robertsdale, Alabama, USA

GOING TO ROBERTSDALE?


FAA INFORMATION EFFECTIVE 26 APRIL 2018

Location

FAA Identifier: 1AL4
Lat/Long: 30-32-41.0000N / 087-33-34.0000W
30-32.683333N / 087-33.566667W
30.5447222 / -87.5594444
(estimated)
Elevation: 180 ft. / 55 m (estimated)
Variation: 01E (1990)
From city: 11 miles E of ROBERTSDALE, AL
Time zone: UTC -5 (UTC -6 during Standard Time)
Zip code: 36567

Airport Operations

Airport use: Private use. Permission required prior to landing
Activation date: 03/1993
Control tower: no
ARTCC: JACKSONVILLE CENTER
FSS: ANNISTON FLIGHT SERVICE STATION
Attendance: UNATNDD
Segmented circle: no

Airport Communications

WX AWOS-3PT at JKA (16 nm S): 134.525 (251-968-7581)
WX AWOS-3PT at CQF (17 nm W): 118.425 (251-928-3242)
WX ASOS at PNS (20 nm E): PHONE 850-436-4799

Nearby radio navigation aids

VOR radial/distance  VOR name  Freq  Var
NUNr290/(12.3)SAUFLEY VOR108.8001E
BFMr095/25.9BROOKLEY VORTAC112.8004E

 
NDB name  Hdg/Dist  Freq  Var  ID
PICKENS290/20.732602WPKZ .--. -.- --..

Airport Services

Runway Information

Runway 9/27

Dimensions: 2400 x 100 ft. / 732 x 30 m
Surface: turf
RUNWAY 9  RUNWAY 27
Traffic pattern: leftleft

Airport Ownership and Management from official FAA records

Ownership: Privately-owned
Owner: RICHARD E. GORDON JR
21810 KOLER ROAD
ROBERTSDALE, AL 21756
Phone (805) 572-7510
Manager: RICHARD E. GORDON JR.
21810 KOLER ROAD
ROBERTSDALE, AL 21756
Phone (805) 572-7510

Airport Operational Statistics

Aircraft based on the field: 1
Single engine airplanes: 1
    

Additional Remarks

GLIDER ACTIVITY ON AND INVOF ARPT.

Instrument Procedures

There are no published instrument procedures at 1AL4.

Some nearby airports with instrument procedures:

5R4 - Foley Municipal Airport (10 nm SW)
KJKA - Jack Edwards National Airport (16 nm S)
KNPA - Pensacola Naval Air Station/Forrest Sherman Field (17 nm SE)
KCQF - H L Sonny Callahan Airport (17 nm W)
KPNS - Pensacola International Airport (20 nm E)
 
Loc | Ops | Rwys | IFR | FBO | Links
Com | Nav | Svcs | Stats | Notes

Continental Motors
AirBoss

 
Area around 1AL4 (Elsanor Airport)
 
Road maps at: MapQuest Bing Google
 
Aerial photo
No photo
 
Sectional chart

 
Airport distance calculator
Flying to Elsanor Airport? Find the distance to fly.

From to 1AL4

Sunrise and sunset
Times for 21-May-2018
 Local
(UTC-5)
 Zulu
(UTC)
Morning civil twilight05:2710:27
Sunrise05:5310:53
Sunset19:4000:40
Evening civil twilight20:0701:07

Current date and time
Zulu (UTC)  21-May-2018 10:17:59
Local (UTC-5)  21-May-2018 05:17:59
 
METAR
KJKA 
16nm S 
210955Z AUTO 05005KT 10SM CLR 21/21 A3001 RMK AO2 T02130213
KNPA 
17nm SE 
210956Z AUTO 04007KT 10SM FEW020 22/19 A3000 RMK AO2 SLP161 T02220194
KCQF 
17nm W 
210955Z AUTO 07005KT 10SM BKN021 21/21 A3001 RMK AO2
KPNS 
20nm E 
210953Z 06004KT 10SM BKN022 22/19 A3001 RMK AO2 SLP163 T02220194
KBFM 
27nm W 
211000Z AUTO 07007KT 10SM BKN008 OVC020 23/22 A3002 RMK AO2 T02330217
KNDZ 
29nm E 
210956Z AUTO 06005KT 10SM OVC022 21/20 A3003 RMK AO2 SLP152 T02060200 $
2R4 
30nm E 
SuperAWOS
210955Z AUTO 00000KT 21/19 A3001
KNSE 
30nm E 
210856Z AUTO 07005KT 10SM OVC019 20/20 A3002 RMK AO2 SLP152 T02000200 56013 $
TAF
KNPA 
17nm SE 
2107/2207 VRB06KT 9999 SCT010 BKN012 QNH2990INS TEMPO 2107/2113 18010KT 6000 SHRA BR SCT010 BKN020 QNH2995INS BECMG 2114/2116 9999 SHRA VCTS SCT010 BKN020CB BKN150 TEMPO 2119/2201 4800 TSRA OVC010CB BECMG 2202/2204 18008KT 9999 NSW SCT020 OVC060 QNH2992INS TEMPO 2204/2207 VRB03KT 6000 BR OVC015 T31/2118Z T22/2110Z FN00180
KPNS 
20nm E 
210527Z 2106/2206 09006KT P6SM FEW025 SCT100 FM211200 05004KT P6SM OVC020 TEMPO 2118/2122 VRB15G25KT 2SM TSRA SCT010CB BKN025 OVC080
NOTAMs
Click for the latest NOTAMs
NOTAMs are issued by the DoD/FAA and will open in a separate window not controlled by AirNav.

 

 
 

Would you like to see your business listed on this page?

 If your business provides an interesting product or service to pilots, flight crews, aircraft, or users of the Elsanor Airport, you should consider listing it here.  To start the listing process, click on the button below
 
Add a business
 

Other Pages about Elsanor Airport

Update a link
 
Copyright © AirNav, LLC. All rights reserved. Privacy Policy  Contact